Airfield :
LOGIN :

Register | Disclaimer

   EN    FR    IT 

 










Legend :    VFR   Marginal VFR   IFR   Intensive IFR   Very Intensive IFR
Visi :
Ceiling :
>= 8 km
>= 3000ft
5 to 8 km
1000 to 3000 ft
1500m to 5 km
500 to 1000 ft
800 to 1500m
200 to 500 ft
< 800m
< 200 ft
Symbols :   Thunderstorms  Fog  Heavy snow  Heavy precipitations  Wind > 20 kt
SIGMETs :     Misc.  Thunderstorms  Icing  Turbulence  Mountain Waves  Volcanic Ashes







- Airport Elevation : 297 ft


EGVP - Middle Wallop

CURRENT METAR :
  • 191434Z 22019G31KT 9999 BKN023 20/14 Q1012 WHT TEMPO 5000 SHRA WHT

EXPIRED METARs :
  • 191350Z 22018G33KT 9999 BKN026 SCT250 21/14 Q1012 BLU TEMPO SCT020 WHT
  • 191250Z 22020G31KT 9999 BKN025 BKN300 21/14 Q1012 BLU NOSIG
  • 191150Z 22018G35KT 9999 BKN022 21/15 Q1012 WHT BECMG SCT025 BLU

TAF TAF EGVP
Valid from the 19 at 15:00 until the 19 at 23:00 UTC


191338Z 1915/1923 22020G32KT 9999 SCT025
TEMPO 1915/1919 BKN018
PROB40
TEMPO 1915/1919 4000 -RADZ BKN010
BECMG 1916/1919 25012KT
ATIS : +44 1980 674 142
No reported NOTAMs for that airfield.
4 SIGMETs reported for the London FIR (EGTT) :
 
Severe mountain waves
EGTT SIGMET 11 VALID 191300/191700 EGRR
EGTT LONDON FIR SEV MTW FCST WI N5311 E00322 - N5143 E00210 - N4947 W00545 - N5139 W00647 - N5220 W00530 - N5500 W00530 - N5500 W00100 - N5311 E00322 FL030/250 STNR NC=
Severe turbulence
EGTT SIGMET 10 VALID 191300/191700 EGRR
EGTT LONDON FIR SEV TURB FCST N OF N4958 AND E OF W00534 SFC/FL060 MOV ENE 40KT WKN=
SIGMET 08 cancelation
EGTT SIGMET 09 VALID 191245/191632 EGRR
EGTT LONDON FIR CNL SIGMET 08 191232/191632=
SIGMET 08  CANCELED :
Severe turbulence
EGTT SIGMET 08 VALID 191232/191632 EGRR
EGTT LONDON FIR SEV TURB FCST N OF N4955 AND E OF W00546 SFC/FL060 MOV ENE 40KT WKN=



MET'MAP, your aeronautical weather chart ! - Copyright ORBIFLY December 2007 - Disclaimer

ORBIFLY MET'MAP TEAM :

Programming & Development : Alexandra Zaïnal
Concept & Development : Baudouin d'Aumeries
Co-Development & Prog : Marc-Olivier Méhu
Technical & hardware support : Manuel Goepfert

Contact : metmap@orbifly.com




SOURCES & CREDITS :

   NOAA